sensor_id;sensor_type;location;lat;lon;timestamp;pressure;altitude;pressure_sealevel;temperature
8362;BMP180;4218;48.326;14.304;2023-02-15T00:01:09;99955.00;;;-1.30
8362;BMP180;4218;48.326;14.304;2023-02-15T00:03:35;99952.00;;;-1.30
8362;BMP180;4218;48.326;14.304;2023-02-15T00:06:00;99954.00;;;-1.30
8362;BMP180;4218;48.326;14.304;2023-02-15T00:08:26;99956.00;;;-1.30
8362;BMP180;4218;48.326;14.304;2023-02-15T00:10:51;99943.00;;;-1.10
8362;BMP180;4218;48.326;14.304;2023-02-15T00:13:16;99948.00;;;-1.10
8362;BMP180;4218;48.326;14.304;2023-02-15T00:15:42;99947.00;;;-1.10
8362;BMP180;4218;48.326;14.304;2023-02-15T00:18:07;99943.00;;;-1.00
8362;BMP180;4218;48.326;14.304;2023-02-15T00:20:32;99931.00;;;-1.00
8362;BMP180;4218;48.326;14.304;2023-02-15T00:22:58;99937.00;;;-0.90
8362;BMP180;4218;48.326;14.304;2023-02-15T00:25:24;99944.00;;;-1.00
8362;BMP180;4218;48.326;14.304;2023-02-15T00:27:49;99947.00;;;-1.00
8362;BMP180;4218;48.326;14.304;2023-02-15T00:30:15;99961.00;;;-1.00
8362;BMP180;4218;48.326;14.304;2023-02-15T00:32:40;99944.00;;;-1.00
8362;BMP180;4218;48.326;14.304;2023-02-15T00:35:06;99941.00;;;-1.00
8362;BMP180;4218;48.326;14.304;2023-02-15T00:37:33;99945.00;;;-0.90
8362;BMP180;4218;48.326;14.304;2023-02-15T00:39:58;99939.00;;;-1.00
8362;BMP180;4218;48.326;14.304;2023-02-15T00:42:24;99928.00;;;-1.00
8362;BMP180;4218;48.326;14.304;2023-02-15T00:44:49;99933.00;;;-0.90
8362;BMP180;4218;48.326;14.304;2023-02-15T00:47:14;99941.00;;;-0.90
8362;BMP180;4218;48.326;14.304;2023-02-15T00:49:40;99935.00;;;-0.90
8362;BMP180;4218;48.326;14.304;2023-02-15T00:52:05;99936.00;;;-0.60
8362;BMP180;4218;48.326;14.304;2023-02-15T00:54:31;99926.00;;;-0.60
8362;BMP180;4218;48.326;14.304;2023-02-15T00:56:56;99914.00;;;-0.60
8362;BMP180;4218;48.326;14.304;2023-02-15T00:59:21;99917.00;;;-0.50
8362;BMP180;4218;48.326;14.304;2023-02-15T01:01:47;99907.00;;;-0.50
8362;BMP180;4218;48.326;14.304;2023-02-15T01:04:12;99900.00;;;-0.60
8362;BMP180;4218;48.326;14.304;2023-02-15T01:06:37;99903.00;;;-0.50
8362;BMP180;4218;48.326;14.304;2023-02-15T01:09:03;99892.00;;;-0.50
8362;BMP180;4218;48.326;14.304;2023-02-15T01:11:28;99906.00;;;-0.30
8362;BMP180;4218;48.326;14.304;2023-02-15T01:13:55;99900.00;;;-0.40
8362;BMP180;4218;48.326;14.304;2023-02-15T01:16:23;99895.00;;;-0.30
8362;BMP180;4218;48.326;14.304;2023-02-15T01:18:50;99880.00;;;-0.20
8362;BMP180;4218;48.326;14.304;2023-02-15T01:21:18;99897.00;;;-0.30
8362;BMP180;4218;48.326;14.304;2023-02-15T01:23:45;99892.00;;;0.00
8362;BMP180;4218;48.326;14.304;2023-02-15T01:26:10;99893.00;;;0.00
8362;BMP180;4218;48.326;14.304;2023-02-15T01:28:36;99870.00;;;-0.20
8362;BMP180;4218;48.326;14.304;2023-02-15T01:31:13;99885.00;;;-0.20
8362;BMP180;4218;48.326;14.304;2023-02-15T01:33:39;99876.00;;;-0.10
8362;BMP180;4218;48.326;14.304;2023-02-15T01:36:05;99868.00;;;-0.10
8362;BMP180;4218;48.326;14.304;2023-02-15T01:38:30;99864.00;;;0.00
8362;BMP180;4218;48.326;14.304;2023-02-15T01:40:55;99867.00;;;0.00
8362;BMP180;4218;48.326;14.304;2023-02-15T01:43:47;99860.00;;;-0.30
8362;BMP180;4218;48.326;14.304;2023-02-15T01:46:14;99862.00;;;-0.40
8362;BMP180;4218;48.326;14.304;2023-02-15T01:48:47;99860.00;;;-0.30
8362;BMP180;4218;48.326;14.304;2023-02-15T01:51:14;99862.00;;;-0.20
8362;BMP180;4218;48.326;14.304;2023-02-15T01:53:54;99855.00;;;0.00
8362;BMP180;4218;48.326;14.304;2023-02-15T01:56:25;99854.00;;;0.10
8362;BMP180;4218;48.326;14.304;2023-02-15T01:58:53;99846.00;;;0.00
8362;BMP180;4218;48.326;14.304;2023-02-15T02:01:21;99837.00;;;-0.20
8362;BMP180;4218;48.326;14.304;2023-02-15T02:03:54;99839.00;;;-0.20
8362;BMP180;4218;48.326;14.304;2023-02-15T02:06:22;99837.00;;;-0.20
8362;BMP180;4218;48.326;14.304;2023-02-15T02:08:48;99835.00;;;-0.20
8362;BMP180;4218;48.326;14.304;2023-02-15T02:11:14;99841.00;;;-0.20
8362;BMP180;4218;48.326;14.304;2023-02-15T02:13:41;99825.00;;;-0.30
8362;BMP180;4218;48.326;14.304;2023-02-15T02:27:34;99827.00;;;-1.00
8362;BMP180;4218;48.326;14.304;2023-02-15T02:33:46;99817.00;;;-1.10
8362;BMP180;4218;48.326;14.304;2023-02-15T02:36:22;99823.00;;;-1.10
8362;BMP180;4218;48.326;14.304;2023-02-15T02:39:12;99820.00;;;-1.10
8362;BMP180;4218;48.326;14.304;2023-02-15T02:44:52;99817.00;;;-1.10
8362;BMP180;4218;48.326;14.304;2023-02-15T02:49:47;99807.00;;;-1.10
8362;BMP180;4218;48.326;14.304;2023-02-15T02:52:36;99807.00;;;-1.10
8362;BMP180;4218;48.326;14.304;2023-02-15T02:55:52;99804.00;;;-1.10
8362;BMP180;4218;48.326;14.304;2023-02-15T02:58:08;99797.00;;;-1.00
8362;BMP180;4218;48.326;14.304;2023-02-15T03:00:40;99794.00;;;-1.10
8362;BMP180;4218;48.326;14.304;2023-02-15T03:03:12;99793.00;;;-1.10
8362;BMP180;4218;48.326;14.304;2023-02-15T03:05:44;99787.00;;;-1.10
8362;BMP180;4218;48.326;14.304;2023-02-15T03:08:10;99792.00;;;-1.00
8362;BMP180;4218;48.326;14.304;2023-02-15T03:10:39;99788.00;;;-1.00
8362;BMP180;4218;48.326;14.304;2023-02-15T03:13:05;99784.00;;;-1.00
8362;BMP180;4218;48.326;14.304;2023-02-15T03:15:37;99778.00;;;-0.90
8362;BMP180;4218;48.326;14.304;2023-02-15T03:18:25;99781.00;;;-0.90
8362;BMP180;4218;48.326;14.304;2023-02-15T03:20:54;99784.00;;;-0.90
8362;BMP180;4218;48.326;14.304;2023-02-15T03:23:23;99788.00;;;-0.90
8362;BMP180;4218;48.326;14.304;2023-02-15T03:25:52;99785.00;;;-0.70
8362;BMP180;4218;48.326;14.304;2023-02-15T03:28:27;99796.00;;;-0.70
8362;BMP180;4218;48.326;14.304;2023-02-15T03:30:56;99789.00;;;-0.80
8362;BMP180;4218;48.326;14.304;2023-02-15T03:33:26;99773.00;;;-0.90
8362;BMP180;4218;48.326;14.304;2023-02-15T03:36:09;99783.00;;;-1.00
8362;BMP180;4218;48.326;14.304;2023-02-15T03:38:44;99790.00;;;-0.90
8362;BMP180;4218;48.326;14.304;2023-02-15T03:41:14;99796.00;;;-0.80
8362;BMP180;4218;48.326;14.304;2023-02-15T03:46:18;99790.00;;;-0.80
8362;BMP180;4218;48.326;14.304;2023-02-15T03:48:49;99777.00;;;-0.80
8362;BMP180;4218;48.326;14.304;2023-02-15T03:51:22;99780.00;;;-0.70
8362;BMP180;4218;48.326;14.304;2023-02-15T03:54:08;99780.00;;;-0.70
8362;BMP180;4218;48.326;14.304;2023-02-15T03:56:35;99779.00;;;-0.60
8362;BMP180;4218;48.326;14.304;2023-02-15T03:59:02;99773.00;;;-0.70
8362;BMP180;4218;48.326;14.304;2023-02-15T04:02:01;99772.00;;;-0.70
8362;BMP180;4218;48.326;14.304;2023-02-15T04:04:38;99790.00;;;-0.80
8362;BMP180;4218;48.326;14.304;2023-02-15T04:07:07;99789.00;;;-0.80
8362;BMP180;4218;48.326;14.304;2023-02-15T04:09:33;99792.00;;;-0.80
8362;BMP180;4218;48.326;14.304;2023-02-15T04:12:17;99782.00;;;-0.70
8362;BMP180;4218;48.326;14.304;2023-02-15T04:14:43;99779.00;;;-0.80
8362;BMP180;4218;48.326;14.304;2023-02-15T04:17:27;99776.00;;;-0.80
8362;BMP180;4218;48.326;14.304;2023-02-15T04:19:52;99771.00;;;-0.70
8362;BMP180;4218;48.326;14.304;2023-02-15T04:22:36;99780.00;;;-0.70
8362;BMP180;4218;48.326;14.304;2023-02-15T04:25:21;99788.00;;;-0.80
8362;BMP180;4218;48.326;14.304;2023-02-15T04:27:52;99785.00;;;-0.70
8362;BMP180;4218;48.326;14.304;2023-02-15T04:30:20;99779.00;;;-0.70
8362;BMP180;4218;48.326;14.304;2023-02-15T04:32:47;99776.00;;;-0.80
8362;BMP180;4218;48.326;14.304;2023-02-15T04:35:12;99771.00;;;-0.70
8362;BMP180;4218;48.326;14.304;2023-02-15T04:37:39;99756.00;;;-0.70
8362;BMP180;4218;48.326;14.304;2023-02-15T04:40:06;99767.00;;;-0.70
8362;BMP180;4218;48.326;14.304;2023-02-15T04:42:32;99754.00;;;-0.70
8362;BMP180;4218;48.326;14.304;2023-02-15T04:44:57;99757.00;;;-0.70
8362;BMP180;4218;48.326;14.304;2023-02-15T04:47:23;99751.00;;;-0.70
8362;BMP180;4218;48.326;14.304;2023-02-15T04:49:49;99767.00;;;-0.70
8362;BMP180;4218;48.326;14.304;2023-02-15T04:52:15;99750.00;;;-0.60
8362;BMP180;4218;48.326;14.304;2023-02-15T04:54:40;99751.00;;;-0.50
8362;BMP180;4218;48.326;14.304;2023-02-15T04:57:05;99755.00;;;-0.30
8362;BMP180;4218;48.326;14.304;2023-02-15T04:59:31;99754.00;;;-0.30
8362;BMP180;4218;48.326;14.304;2023-02-15T05:01:56;99765.00;;;-0.20
8362;BMP180;4218;48.326;14.304;2023-02-15T05:04:22;99772.00;;;-0.30
8362;BMP180;4218;48.326;14.304;2023-02-15T05:06:47;99774.00;;;-0.50
8362;BMP180;4218;48.326;14.304;2023-02-15T05:09:13;99751.00;;;-0.50
8362;BMP180;4218;48.326;14.304;2023-02-15T05:11:39;99763.00;;;-0.60
8362;BMP180;4218;48.326;14.304;2023-02-15T05:14:04;99755.00;;;-0.50
8362;BMP180;4218;48.326;14.304;2023-02-15T05:16:30;99757.00;;;-0.40
8362;BMP180;4218;48.326;14.304;2023-02-15T05:18:55;99752.00;;;-0.50
8362;BMP180;4218;48.326;14.304;2023-02-15T05:21:22;99758.00;;;-0.50
8362;BMP180;4218;48.326;14.304;2023-02-15T05:23:48;99762.00;;;-0.70
8362;BMP180;4218;48.326;14.304;2023-02-15T05:26:17;99760.00;;;-0.80
8362;BMP180;4218;48.326;14.304;2023-02-15T05:29:02;99764.00;;;-0.60
8362;BMP180;4218;48.326;14.304;2023-02-15T05:31:28;99766.00;;;-0.60
8362;BMP180;4218;48.326;14.304;2023-02-15T05:33:53;99754.00;;;-0.60
8362;BMP180;4218;48.326;14.304;2023-02-15T05:36:18;99762.00;;;-0.60
8362;BMP180;4218;48.326;14.304;2023-02-15T05:38:47;99767.00;;;-0.80
8362;BMP180;4218;48.326;14.304;2023-02-15T05:41:12;99756.00;;;-0.80
8362;BMP180;4218;48.326;14.304;2023-02-15T05:43:40;99775.00;;;-0.90
8362;BMP180;4218;48.326;14.304;2023-02-15T05:46:06;99776.00;;;-0.90
8362;BMP180;4218;48.326;14.304;2023-02-15T05:48:33;99774.00;;;-0.90
8362;BMP180;4218;48.326;14.304;2023-02-15T05:51:10;99771.00;;;-0.90
8362;BMP180;4218;48.326;14.304;2023-02-15T05:53:38;99763.00;;;-0.80
8362;BMP180;4218;48.326;14.304;2023-02-15T05:56:05;99771.00;;;-0.70
8362;BMP180;4218;48.326;14.304;2023-02-15T05:58:34;99774.00;;;-0.80
8362;BMP180;4218;48.326;14.304;2023-02-15T06:01:07;99769.00;;;-0.90
8362;BMP180;4218;48.326;14.304;2023-02-15T06:03:33;99785.00;;;-0.80
8362;BMP180;4218;48.326;14.304;2023-02-15T06:05:58;99782.00;;;-0.90
8362;BMP180;4218;48.326;14.304;2023-02-15T06:08:24;99778.00;;;-0.90
8362;BMP180;4218;48.326;14.304;2023-02-15T06:10:49;99781.00;;;-0.90
8362;BMP180;4218;48.326;14.304;2023-02-15T06:13:14;99790.00;;;-0.90
8362;BMP180;4218;48.326;14.304;2023-02-15T06:15:40;99785.00;;;-0.80
8362;BMP180;4218;48.326;14.304;2023-02-15T06:18:08;99791.00;;;-1.00
8362;BMP180;4218;48.326;14.304;2023-02-15T06:20:34;99788.00;;;-1.00
8362;BMP180;4218;48.326;14.304;2023-02-15T06:22:59;99788.00;;;-1.00
8362;BMP180;4218;48.326;14.304;2023-02-15T06:25:24;99800.00;;;-1.00
8362;BMP180;4218;48.326;14.304;2023-02-15T06:27:50;99782.00;;;-1.00
8362;BMP180;4218;48.326;14.304;2023-02-15T06:30:15;99791.00;;;-0.90
8362;BMP180;4218;48.326;14.304;2023-02-15T06:32:41;99804.00;;;-0.90
8362;BMP180;4218;48.326;14.304;2023-02-15T06:35:07;99811.00;;;-0.90
8362;BMP180;4218;48.326;14.304;2023-02-15T06:37:32;99794.00;;;-0.80
8362;BMP180;4218;48.326;14.304;2023-02-15T06:39:58;99813.00;;;-0.70
8362;BMP180;4218;48.326;14.304;2023-02-15T06:42:24;99804.00;;;-0.60
8362;BMP180;4218;48.326;14.304;2023-02-15T06:44:49;99792.00;;;-0.50
8362;BMP180;4218;48.326;14.304;2023-02-15T06:47:14;99795.00;;;-0.50
8362;BMP180;4218;48.326;14.304;2023-02-15T06:49:40;99798.00;;;-0.40
8362;BMP180;4218;48.326;14.304;2023-02-15T06:52:05;99794.00;;;-0.40
8362;BMP180;4218;48.326;14.304;2023-02-15T06:54:31;99807.00;;;-0.40
8362;BMP180;4218;48.326;14.304;2023-02-15T06:56:56;99811.00;;;-0.50
8362;BMP180;4218;48.326;14.304;2023-02-15T06:59:21;99825.00;;;-0.60
8362;BMP180;4218;48.326;14.304;2023-02-15T07:01:47;99811.00;;;-0.40
8362;BMP180;4218;48.326;14.304;2023-02-15T07:04:12;99831.00;;;-0.40
8362;BMP180;4218;48.326;14.304;2023-02-15T07:06:38;99821.00;;;-0.60
8362;BMP180;4218;48.326;14.304;2023-02-15T07:09:04;99838.00;;;-0.50
8362;BMP180;4218;48.326;14.304;2023-02-15T07:11:30;99828.00;;;-0.50
8362;BMP180;4218;48.326;14.304;2023-02-15T07:14:14;99834.00;;;-0.60
8362;BMP180;4218;48.326;14.304;2023-02-15T07:16:39;99838.00;;;-0.50
8362;BMP180;4218;48.326;14.304;2023-02-15T07:19:05;99841.00;;;-0.50
8362;BMP180;4218;48.326;14.304;2023-02-15T07:21:31;99832.00;;;-0.50
8362;BMP180;4218;48.326;14.304;2023-02-15T07:23:57;99829.00;;;-0.40
8362;BMP180;4218;48.326;14.304;2023-02-15T07:26:23;99826.00;;;-0.40
8362;BMP180;4218;48.326;14.304;2023-02-15T07:28:50;99829.00;;;-0.50
8362;BMP180;4218;48.326;14.304;2023-02-15T07:31:15;99847.00;;;-0.50
8362;BMP180;4218;48.326;14.304;2023-02-15T07:33:41;99847.00;;;-0.50
8362;BMP180;4218;48.326;14.304;2023-02-15T07:36:07;99833.00;;;-0.40
8362;BMP180;4218;48.326;14.304;2023-02-15T07:38:36;99845.00;;;-0.40
8362;BMP180;4218;48.326;14.304;2023-02-15T07:41:04;99834.00;;;-0.30
8362;BMP180;4218;48.326;14.304;2023-02-15T07:43:32;99838.00;;;-0.20
8362;BMP180;4218;48.326;14.304;2023-02-15T07:46:07;99821.00;;;-0.30
8362;BMP180;4218;48.326;14.304;2023-02-15T07:48:33;99838.00;;;-0.20
8362;BMP180;4218;48.326;14.304;2023-02-15T07:51:00;99829.00;;;-0.30
8362;BMP180;4218;48.326;14.304;2023-02-15T07:53:26;99830.00;;;-0.30
8362;BMP180;4218;48.326;14.304;2023-02-15T07:55:51;99812.00;;;-0.40
8362;BMP180;4218;48.326;14.304;2023-02-15T07:58:17;99825.00;;;-0.30
8362;BMP180;4218;48.326;14.304;2023-02-15T08:00:43;99820.00;;;-0.30
8362;BMP180;4218;48.326;14.304;2023-02-15T08:03:26;99823.00;;;-0.30
8362;BMP180;4218;48.326;14.304;2023-02-15T08:05:56;99831.00;;;-0.30
8362;BMP180;4218;48.326;14.304;2023-02-15T08:08:23;99823.00;;;-0.30
8362;BMP180;4218;48.326;14.304;2023-02-15T08:13:46;99828.00;;;-0.40
8362;BMP180;4218;48.326;14.304;2023-02-15T08:16:22;99840.00;;;-0.50
8362;BMP180;4218;48.326;14.304;2023-02-15T08:18:47;99824.00;;;-0.40
8362;BMP180;4218;48.326;14.304;2023-02-15T08:21:13;99813.00;;;-0.40
8362;BMP180;4218;48.326;14.304;2023-02-15T08:23:38;99834.00;;;-0.50
8362;BMP180;4218;48.326;14.304;2023-02-15T08:26:04;99821.00;;;-0.30
8362;BMP180;4218;48.326;14.304;2023-02-15T08:28:30;99823.00;;;-0.30
8362;BMP180;4218;48.326;14.304;2023-02-15T08:31:04;99828.00;;;-0.20
8362;BMP180;4218;48.326;14.304;2023-02-15T08:33:29;99825.00;;;-0.10
8362;BMP180;4218;48.326;14.304;2023-02-15T08:35:54;99826.00;;;-0.20
8362;BMP180;4218;48.326;14.304;2023-02-15T08:38:20;99825.00;;;-0.10
8362;BMP180;4218;48.326;14.304;2023-02-15T08:40:45;99827.00;;;0.00
8362;BMP180;4218;48.326;14.304;2023-02-15T08:43:11;99827.00;;;0.10
8362;BMP180;4218;48.326;14.304;2023-02-15T08:45:36;99839.00;;;0.10
8362;BMP180;4218;48.326;14.304;2023-02-15T08:48:02;99830.00;;;0.20
8362;BMP180;4218;48.326;14.304;2023-02-15T08:50:27;99826.00;;;0.30
8362;BMP180;4218;48.326;14.304;2023-02-15T08:52:52;99807.00;;;0.50
8362;BMP180;4218;48.326;14.304;2023-02-15T08:55:19;99830.00;;;0.40
8362;BMP180;4218;48.326;14.304;2023-02-15T08:57:44;99832.00;;;0.50
8362;BMP180;4218;48.326;14.304;2023-02-15T09:00:11;99834.00;;;0.80
8362;BMP180;4218;48.326;14.304;2023-02-15T09:02:37;99826.00;;;0.90
8362;BMP180;4218;48.326;14.304;2023-02-15T09:05:02;99835.00;;;0.90
8362;BMP180;4218;48.326;14.304;2023-02-15T09:07:27;99826.00;;;0.90
8362;BMP180;4218;48.326;14.304;2023-02-15T09:09:53;99825.00;;;1.00
8362;BMP180;4218;48.326;14.304;2023-02-15T09:12:19;99828.00;;;0.80
8362;BMP180;4218;48.326;14.304;2023-02-15T09:14:44;99827.00;;;0.90
8362;BMP180;4218;48.326;14.304;2023-02-15T09:17:10;99827.00;;;0.90
8362;BMP180;4218;48.326;14.304;2023-02-15T09:19:35;99831.00;;;1.00
8362;BMP180;4218;48.326;14.304;2023-02-15T09:22:00;99826.00;;;1.00
8362;BMP180;4218;48.326;14.304;2023-02-15T09:24:27;99836.00;;;1.00
8362;BMP180;4218;48.326;14.304;2023-02-15T09:26:52;99837.00;;;1.10
8362;BMP180;4218;48.326;14.304;2023-02-15T09:29:18;99831.00;;;1.20
8362;BMP180;4218;48.326;14.304;2023-02-15T09:31:48;99837.00;;;1.20
8362;BMP180;4218;48.326;14.304;2023-02-15T09:34:16;99831.00;;;1.10
8362;BMP180;4218;48.326;14.304;2023-02-15T09:36:42;99840.00;;;1.10
8362;BMP180;4218;48.326;14.304;2023-02-15T10:03:50;99834.00;;;1.50
8362;BMP180;4218;48.326;14.304;2023-02-15T10:06:32;99832.00;;;1.30
8362;BMP180;4218;48.326;14.304;2023-02-15T10:14:44;99839.00;;;1.30
8362;BMP180;4218;48.326;14.304;2023-02-15T10:22:31;99832.00;;;1.20
8362;BMP180;4218;48.326;14.304;2023-02-15T10:25:31;99824.00;;;1.20
8362;BMP180;4218;48.326;14.304;2023-02-15T10:28:06;99820.00;;;1.10
8362;BMP180;4218;48.326;14.304;2023-02-15T10:30:57;99811.00;;;1.00
8362;BMP180;4218;48.326;14.304;2023-02-15T10:33:31;99812.00;;;1.00
8362;BMP180;4218;48.326;14.304;2023-02-15T10:39:19;99799.00;;;1.00
8362;BMP180;4218;48.326;14.304;2023-02-15T10:45:06;99793.00;;;1.00
8362;BMP180;4218;48.326;14.304;2023-02-15T10:48:01;99801.00;;;1.00
8362;BMP180;4218;48.326;14.304;2023-02-15T10:50:52;99789.00;;;1.10
8362;BMP180;4218;48.326;14.304;2023-02-15T10:56:30;99785.00;;;1.20
8362;BMP180;4218;48.326;14.304;2023-02-15T10:59:19;99783.00;;;1.20
8362;BMP180;4218;48.326;14.304;2023-02-15T11:02:23;99783.00;;;1.30
8362;BMP180;4218;48.326;14.304;2023-02-15T11:07:25;99782.00;;;1.10
8362;BMP180;4218;48.326;14.304;2023-02-15T11:12:28;99769.00;;;1.00
8362;BMP180;4218;48.326;14.304;2023-02-15T11:15:01;99756.00;;;1.00
8362;BMP180;4218;48.326;14.304;2023-02-15T11:17:39;99747.00;;;1.10
8362;BMP180;4218;48.326;14.304;2023-02-15T11:20:25;99748.00;;;1.20
8362;BMP180;4218;48.326;14.304;2023-02-15T11:22:53;99741.00;;;1.30
8362;BMP180;4218;48.326;14.304;2023-02-15T11:25:24;99749.00;;;1.30
8362;BMP180;4218;48.326;14.304;2023-02-15T11:27:50;99738.00;;;1.40
8362;BMP180;4218;48.326;14.304;2023-02-15T11:30:21;99747.00;;;1.20
8362;BMP180;4218;48.326;14.304;2023-02-15T11:32:50;99745.00;;;1.20
8362;BMP180;4218;48.326;14.304;2023-02-15T11:35:27;99740.00;;;1.20
8362;BMP180;4218;48.326;14.304;2023-02-15T11:38:01;99727.00;;;1.30
8362;BMP180;4218;48.326;14.304;2023-02-15T11:40:43;99737.00;;;1.40
8362;BMP180;4218;48.326;14.304;2023-02-15T11:43:38;99735.00;;;1.40
8362;BMP180;4218;48.326;14.304;2023-02-15T11:46:05;99738.00;;;1.40
8362;BMP180;4218;48.326;14.304;2023-02-15T11:48:31;99719.00;;;1.30
8362;BMP180;4218;48.326;14.304;2023-02-15T11:50:57;99712.00;;;1.50
8362;BMP180;4218;48.326;14.304;2023-02-15T11:53:23;99713.00;;;1.50
8362;BMP180;4218;48.326;14.304;2023-02-15T11:55:53;99726.00;;;1.50
8362;BMP180;4218;48.326;14.304;2023-02-15T11:58:41;99728.00;;;1.60
8362;BMP180;4218;48.326;14.304;2023-02-15T12:01:19;99718.00;;;1.60
8362;BMP180;4218;48.326;14.304;2023-02-15T12:03:55;99713.00;;;1.60
8362;BMP180;4218;48.326;14.304;2023-02-15T12:06:35;99718.00;;;1.50
8362;BMP180;4218;48.326;14.304;2023-02-15T12:11:41;99718.00;;;1.60
8362;BMP180;4218;48.326;14.304;2023-02-15T12:14:09;99716.00;;;1.60
8362;BMP180;4218;48.326;14.304;2023-02-15T12:16:49;99718.00;;;1.70
8362;BMP180;4218;48.326;14.304;2023-02-15T12:22:06;99717.00;;;1.60
8362;BMP180;4218;48.326;14.304;2023-02-15T12:24:47;99708.00;;;1.90
8362;BMP180;4218;48.326;14.304;2023-02-15T12:27:26;99706.00;;;2.10
8362;BMP180;4218;48.326;14.304;2023-02-15T12:29:57;99707.00;;;2.10
8362;BMP180;4218;48.326;14.304;2023-02-15T12:32:26;99683.00;;;1.90
8362;BMP180;4218;48.326;14.304;2023-02-15T12:35:09;99695.00;;;1.90
8362;BMP180;4218;48.326;14.304;2023-02-15T12:37:35;99678.00;;;1.80
8362;BMP180;4218;48.326;14.304;2023-02-15T12:40:19;99677.00;;;1.90
8362;BMP180;4218;48.326;14.304;2023-02-15T12:42:45;99666.00;;;2.30
8362;BMP180;4218;48.326;14.304;2023-02-15T12:45:28;99674.00;;;2.10
8362;BMP180;4218;48.326;14.304;2023-02-15T12:48:28;99677.00;;;2.10
8362;BMP180;4218;48.326;14.304;2023-02-15T12:51:07;99666.00;;;2.40
8362;BMP180;4218;48.326;14.304;2023-02-15T12:53:35;99660.00;;;2.40
8362;BMP180;4218;48.326;14.304;2023-02-15T12:56:06;99675.00;;;2.40
8362;BMP180;4218;48.326;14.304;2023-02-15T12:58:39;99656.00;;;2.30
8362;BMP180;4218;48.326;14.304;2023-02-15T13:03:35;99658.00;;;1.70
8362;BMP180;4218;48.326;14.304;2023-02-15T13:06:02;99659.00;;;1.80
8362;BMP180;4218;48.326;14.304;2023-02-15T13:08:36;99653.00;;;2.10
8362;BMP180;4218;48.326;14.304;2023-02-15T13:11:39;99650.00;;;2.30
8362;BMP180;4218;48.326;14.304;2023-02-15T13:14:21;99650.00;;;2.30
8362;BMP180;4218;48.326;14.304;2023-02-15T13:16:50;99653.00;;;2.50
8362;BMP180;4218;48.326;14.304;2023-02-15T13:19:22;99634.00;;;1.90
8362;BMP180;4218;48.326;14.304;2023-02-15T13:21:51;99652.00;;;1.90
8362;BMP180;4218;48.326;14.304;2023-02-15T13:24:29;99637.00;;;2.10
8362;BMP180;4218;48.326;14.304;2023-02-15T13:26:57;99638.00;;;2.10
8362;BMP180;4218;48.326;14.304;2023-02-15T13:29:33;99638.00;;;1.80
8362;BMP180;4218;48.326;14.304;2023-02-15T13:32:26;99642.00;;;2.10
8362;BMP180;4218;48.326;14.304;2023-02-15T13:35:00;99647.00;;;2.30
8362;BMP180;4218;48.326;14.304;2023-02-15T13:40:52;99638.00;;;2.30
8362;BMP180;4218;48.326;14.304;2023-02-15T13:46:21;99625.00;;;2.20
8362;BMP180;4218;48.326;14.304;2023-02-15T13:55:06;99627.00;;;2.20
8362;BMP180;4218;48.326;14.304;2023-02-15T13:57:43;99630.00;;;2.10
8362;BMP180;4218;48.326;14.304;2023-02-15T14:05:33;99624.00;;;2.00
8362;BMP180;4218;48.326;14.304;2023-02-15T14:08:11;99610.00;;;1.60
8362;BMP180;4218;48.326;14.304;2023-02-15T14:10:54;99605.00;;;1.60
8362;BMP180;4218;48.326;14.304;2023-02-15T14:29:19;99619.00;;;2.10
8362;BMP180;4218;48.326;14.304;2023-02-15T14:31:48;99595.00;;;2.20
8362;BMP180;4218;48.326;14.304;2023-02-15T14:34:56;99610.00;;;2.20
8362;BMP180;4218;48.326;14.304;2023-02-15T14:40:34;99606.00;;;2.30
8362;BMP180;4218;48.326;14.304;2023-02-15T14:49:17;99602.00;;;2.10
8362;BMP180;4218;48.326;14.304;2023-02-15T14:52:00;99606.00;;;2.00
8362;BMP180;4218;48.326;14.304;2023-02-15T15:02:48;99611.00;;;1.80
8362;BMP180;4218;48.326;14.304;2023-02-15T15:05:32;99602.00;;;1.90
8362;BMP180;4218;48.326;14.304;2023-02-15T15:07:59;99598.00;;;1.80
8362;BMP180;4218;48.326;14.304;2023-02-15T15:10:35;99602.00;;;1.90
8362;BMP180;4218;48.326;14.304;2023-02-15T15:15:56;99604.00;;;1.60
8362;BMP180;4218;48.326;14.304;2023-02-15T15:18:47;99605.00;;;1.60
8362;BMP180;4218;48.326;14.304;2023-02-15T15:21:55;99607.00;;;1.80
8362;BMP180;4218;48.326;14.304;2023-02-15T15:27:45;99593.00;;;1.40
8362;BMP180;4218;48.326;14.304;2023-02-15T15:33:12;99593.00;;;1.50
8362;BMP180;4218;48.326;14.304;2023-02-15T15:49:56;99582.00;;;1.10
8362;BMP180;4218;48.326;14.304;2023-02-15T15:52:23;99582.00;;;1.50
8362;BMP180;4218;48.326;14.304;2023-02-15T15:55:05;99583.00;;;1.20
8362;BMP180;4218;48.326;14.304;2023-02-15T15:57:43;99578.00;;;1.30
8362;BMP180;4218;48.326;14.304;2023-02-15T16:00:40;99582.00;;;1.30
8362;BMP180;4218;48.326;14.304;2023-02-15T16:03:35;99587.00;;;1.40
8362;BMP180;4218;48.326;14.304;2023-02-15T16:06:01;99575.00;;;1.60
8362;BMP180;4218;48.326;14.304;2023-02-15T16:08:33;99586.00;;;1.50
8362;BMP180;4218;48.326;14.304;2023-02-15T16:11:12;99578.00;;;1.20
8362;BMP180;4218;48.326;14.304;2023-02-15T16:13:40;99561.00;;;1.40
8362;BMP180;4218;48.326;14.304;2023-02-15T16:16:06;99573.00;;;1.50
8362;BMP180;4218;48.326;14.304;2023-02-15T16:18:32;99570.00;;;1.50
8362;BMP180;4218;48.326;14.304;2023-02-15T16:20:59;99579.00;;;1.50
8362;BMP180;4218;48.326;14.304;2023-02-15T16:23:41;99594.00;;;1.40
8362;BMP180;4218;48.326;14.304;2023-02-15T16:26:39;99569.00;;;1.40
8362;BMP180;4218;48.326;14.304;2023-02-15T16:29:26;99577.00;;;1.40
8362;BMP180;4218;48.326;14.304;2023-02-15T16:32:02;99577.00;;;1.50
8362;BMP180;4218;48.326;14.304;2023-02-15T16:34:31;99588.00;;;1.40
8362;BMP180;4218;48.326;14.304;2023-02-15T16:37:15;99584.00;;;1.40
8362;BMP180;4218;48.326;14.304;2023-02-15T16:39:43;99585.00;;;1.30
8362;BMP180;4218;48.326;14.304;2023-02-15T16:42:11;99582.00;;;1.40
8362;BMP180;4218;48.326;14.304;2023-02-15T16:44:39;99567.00;;;1.40
8362;BMP180;4218;48.326;14.304;2023-02-15T16:47:21;99587.00;;;1.20
8362;BMP180;4218;48.326;14.304;2023-02-15T16:49:51;99592.00;;;1.10
8362;BMP180;4218;48.326;14.304;2023-02-15T16:52:22;99592.00;;;0.90
8362;BMP180;4218;48.326;14.304;2023-02-15T16:54:58;99596.00;;;1.00
8362;BMP180;4218;48.326;14.304;2023-02-15T16:57:27;99596.00;;;1.10
8362;BMP180;4218;48.326;14.304;2023-02-15T16:59:59;99591.00;;;1.20
8362;BMP180;4218;48.326;14.304;2023-02-15T17:02:31;99596.00;;;1.40
8362;BMP180;4218;48.326;14.304;2023-02-15T17:05:18;99597.00;;;1.40
8362;BMP180;4218;48.326;14.304;2023-02-15T17:10:28;99585.00;;;1.10
8362;BMP180;4218;48.326;14.304;2023-02-15T17:12:56;99596.00;;;1.10
8362;BMP180;4218;48.326;14.304;2023-02-15T17:16:26;99597.00;;;1.10
8362;BMP180;4218;48.326;14.304;2023-02-15T17:18:20;99595.00;;;1.10
8362;BMP180;4218;48.326;14.304;2023-02-15T17:20:48;99590.00;;;1.10
8362;BMP180;4218;48.326;14.304;2023-02-15T17:23:22;99586.00;;;1.20
8362;BMP180;4218;48.326;14.304;2023-02-15T17:25:51;99594.00;;;1.20
8362;BMP180;4218;48.326;14.304;2023-02-15T17:28:19;99598.00;;;1.20
8362;BMP180;4218;48.326;14.304;2023-02-15T17:30:56;99598.00;;;1.20